<?xml version="1.0" encoding="UTF-8" standalone="no" ?>
<gpx xmlns="http://www.topografix.com/GPX/1/1" xmlns:xsi="http://www.w3.org/2001/XMLSchema-instance" xsi:schemaLocation="http://www.topografix.com/GPX/1/1 http://www.topografix.com/GPX/1/1/gpx.xsd" version="1.1" creator="VisuGPX - https://www.visugpx.com">
  <metadata>
    <name>-Reco TONTOR2022</name>
  </metadata>
  <trk>
    <name><![CDATA[14249757-Reco TONTOR2022]]></name>
    <trkseg>
      <trkpt lat="43.33277" lon="-1.74245">
        <ele>48</ele>
        <time>2022-02-10T21:27:17Z</time>
      </trkpt>
      <trkpt lat="43.33267" lon="-1.74192">
        <ele>49</ele>
        <time>2022-02-10T21:27:37Z</time>
      </trkpt>
      <trkpt lat="43.3327" lon="-1.7415">
        <ele>52</ele>
        <time>2022-02-10T21:27:52Z</time>
      </trkpt>
      <trkpt lat="43.33257" lon="-1.74138">
        <ele>50</ele>
        <time>2022-02-10T21:28:00Z</time>
      </trkpt>
      <trkpt lat="43.33246" lon="-1.74098">
        <ele>51</ele>
        <time>2022-02-10T21:28:16Z</time>
      </trkpt>
      <trkpt lat="43.33246" lon="-1.7408">
        <ele>53</ele>
        <time>2022-02-10T21:28:22Z</time>
      </trkpt>
      <trkpt lat="43.33254" lon="-1.74065">
        <ele>57</ele>
        <time>2022-02-10T21:28:29Z</time>
      </trkpt>
      <trkpt lat="43.33277" lon="-1.74049">
        <ele>62</ele>
        <time>2022-02-10T21:28:42Z</time>
      </trkpt>
      <trkpt lat="43.33284" lon="-1.74036">
        <ele>63</ele>
        <time>2022-02-10T21:28:48Z</time>
      </trkpt>
      <trkpt lat="43.33288" lon="-1.74022">
        <ele>65</ele>
        <time>2022-02-10T21:28:53Z</time>
      </trkpt>
      <trkpt lat="43.3328" lon="-1.73986">
        <ele>67</ele>
        <time>2022-02-10T21:29:07Z</time>
      </trkpt>
      <trkpt lat="43.33282" lon="-1.73984">
        <ele>67</ele>
        <time>2022-02-10T21:29:08Z</time>
      </trkpt>
      <trkpt lat="43.33271" lon="-1.7396">
        <ele>69</ele>
        <time>2022-02-10T21:29:19Z</time>
      </trkpt>
      <trkpt lat="43.33267" lon="-1.73945">
        <ele>70</ele>
        <time>2022-02-10T21:29:24Z</time>
      </trkpt>
      <trkpt lat="43.33268" lon="-1.73927">
        <ele>72</ele>
        <time>2022-02-10T21:29:31Z</time>
      </trkpt>
      <trkpt lat="43.33254" lon="-1.73877">
        <ele>80</ele>
        <time>2022-02-10T21:29:50Z</time>
      </trkpt>
      <trkpt lat="43.3325" lon="-1.73813">
        <ele>89</ele>
        <time>2022-02-10T21:30:14Z</time>
      </trkpt>
      <trkpt lat="43.33251" lon="-1.73775">
        <ele>94</ele>
        <time>2022-02-10T21:30:28Z</time>
      </trkpt>
      <trkpt lat="43.33243" lon="-1.73709">
        <ele>102</ele>
        <time>2022-02-10T21:30:52Z</time>
      </trkpt>
      <trkpt lat="43.33239" lon="-1.73699">
        <ele>103</ele>
        <time>2022-02-10T21:30:56Z</time>
      </trkpt>
      <trkpt lat="43.33227" lon="-1.73714">
        <ele>100</ele>
        <time>2022-02-10T21:31:04Z</time>
      </trkpt>
      <trkpt lat="43.33227" lon="-1.73689">
        <ele>104</ele>
        <time>2022-02-10T21:31:13Z</time>
      </trkpt>
      <trkpt lat="43.33195" lon="-1.7368">
        <ele>106</ele>
        <time>2022-02-10T21:31:30Z</time>
      </trkpt>
      <trkpt lat="43.33189" lon="-1.73671">
        <ele>109</ele>
        <time>2022-02-10T21:31:34Z</time>
      </trkpt>
      <trkpt lat="43.33191" lon="-1.73621">
        <ele>116</ele>
        <time>2022-02-10T21:31:52Z</time>
      </trkpt>
      <trkpt lat="43.3318" lon="-1.73555">
        <ele>125</ele>
        <time>2022-02-10T21:32:17Z</time>
      </trkpt>
      <trkpt lat="43.33157" lon="-1.73481">
        <ele>133</ele>
        <time>2022-02-10T21:32:46Z</time>
      </trkpt>
      <trkpt lat="43.33143" lon="-1.73408">
        <ele>144</ele>
        <time>2022-02-10T21:33:14Z</time>
      </trkpt>
      <trkpt lat="43.33144" lon="-1.7339">
        <ele>147</ele>
        <time>2022-02-10T21:33:20Z</time>
      </trkpt>
      <trkpt lat="43.3315" lon="-1.73366">
        <ele>152</ele>
        <time>2022-02-10T21:33:30Z</time>
      </trkpt>
      <trkpt lat="43.3315" lon="-1.7334">
        <ele>156</ele>
        <time>2022-02-10T21:33:39Z</time>
      </trkpt>
      <trkpt lat="43.33153" lon="-1.73319">
        <ele>161</ele>
        <time>2022-02-10T21:33:47Z</time>
      </trkpt>
      <trkpt lat="43.33162" lon="-1.73307">
        <ele>163</ele>
        <time>2022-02-10T21:33:53Z</time>
      </trkpt>
      <trkpt lat="43.33186" lon="-1.73294">
        <ele>165</ele>
        <time>2022-02-10T21:34:06Z</time>
      </trkpt>
      <trkpt lat="43.33268" lon="-1.73295">
        <ele>159</ele>
        <time>2022-02-10T21:34:47Z</time>
      </trkpt>
      <trkpt lat="43.33293" lon="-1.7329">
        <ele>157</ele>
        <time>2022-02-10T21:35:00Z</time>
      </trkpt>
      <trkpt lat="43.33321" lon="-1.73253">
        <ele>160</ele>
        <time>2022-02-10T21:35:19Z</time>
      </trkpt>
      <trkpt lat="43.33326" lon="-1.73211">
        <ele>166</ele>
        <time>2022-02-10T21:35:35Z</time>
      </trkpt>
      <trkpt lat="43.33349" lon="-1.7317">
        <ele>167</ele>
        <time>2022-02-10T21:35:54Z</time>
      </trkpt>
      <trkpt lat="43.33392" lon="-1.7312">
        <ele>167</ele>
        <time>2022-02-10T21:36:22Z</time>
      </trkpt>
      <trkpt lat="43.33418" lon="-1.73074">
        <ele>168</ele>
        <time>2022-02-10T21:36:43Z</time>
      </trkpt>
      <trkpt lat="43.33428" lon="-1.73013">
        <ele>176</ele>
        <time>2022-02-10T21:37:06Z</time>
      </trkpt>
      <trkpt lat="43.33475" lon="-1.7285">
        <ele>171</ele>
        <time>2022-02-10T21:38:09Z</time>
      </trkpt>
      <trkpt lat="43.33465" lon="-1.72751">
        <ele>181</ele>
        <time>2022-02-10T21:38:46Z</time>
      </trkpt>
      <trkpt lat="43.33476" lon="-1.72681">
        <ele>178</ele>
        <time>2022-02-10T21:39:12Z</time>
      </trkpt>
      <trkpt lat="43.33457" lon="-1.72625">
        <ele>185</ele>
        <time>2022-02-10T21:39:34Z</time>
      </trkpt>
      <trkpt lat="43.33468" lon="-1.72553">
        <ele>181</ele>
        <time>2022-02-10T21:40:01Z</time>
      </trkpt>
      <trkpt lat="43.33492" lon="-1.72487">
        <ele>174</ele>
        <time>2022-02-10T21:40:28Z</time>
      </trkpt>
      <trkpt lat="43.3352" lon="-1.72427">
        <ele>173</ele>
        <time>2022-02-10T21:40:54Z</time>
      </trkpt>
      <trkpt lat="43.33524" lon="-1.72394">
        <ele>175</ele>
        <time>2022-02-10T21:41:06Z</time>
      </trkpt>
      <trkpt lat="43.33511" lon="-1.72361">
        <ele>178</ele>
        <time>2022-02-10T21:41:20Z</time>
      </trkpt>
      <trkpt lat="43.33534" lon="-1.72348">
        <ele>179</ele>
        <time>2022-02-10T21:41:32Z</time>
      </trkpt>
      <trkpt lat="43.33594" lon="-1.72333">
        <ele>183</ele>
        <time>2022-02-10T21:42:03Z</time>
      </trkpt>
      <trkpt lat="43.33623" lon="-1.72358">
        <ele>184</ele>
        <time>2022-02-10T21:42:20Z</time>
      </trkpt>
      <trkpt lat="43.33659" lon="-1.72426">
        <ele>180</ele>
        <time>2022-02-10T21:42:51Z</time>
      </trkpt>
      <trkpt lat="43.33704" lon="-1.72468">
        <ele>178</ele>
        <time>2022-02-10T21:43:18Z</time>
      </trkpt>
      <trkpt lat="43.3376" lon="-1.72462">
        <ele>183</ele>
        <time>2022-02-10T21:43:46Z</time>
      </trkpt>
      <trkpt lat="43.33781" lon="-1.72457">
        <ele>185</ele>
        <time>2022-02-10T21:43:57Z</time>
      </trkpt>
      <trkpt lat="43.33809" lon="-1.72508">
        <ele>177</ele>
        <time>2022-02-10T21:44:20Z</time>
      </trkpt>
      <trkpt lat="43.33846" lon="-1.72545">
        <ele>171</ele>
        <time>2022-02-10T21:44:43Z</time>
      </trkpt>
      <trkpt lat="43.33867" lon="-1.72549">
        <ele>169</ele>
        <time>2022-02-10T21:44:53Z</time>
      </trkpt>
      <trkpt lat="43.33877" lon="-1.72533">
        <ele>171</ele>
        <time>2022-02-10T21:45:01Z</time>
      </trkpt>
      <trkpt lat="43.33871" lon="-1.72511">
        <ele>174</ele>
        <time>2022-02-10T21:45:10Z</time>
      </trkpt>
      <trkpt lat="43.33858" lon="-1.72487">
        <ele>178</ele>
        <time>2022-02-10T21:45:20Z</time>
      </trkpt>
      <trkpt lat="43.33831" lon="-1.72372">
        <ele>197</ele>
        <time>2022-02-10T21:46:04Z</time>
      </trkpt>
      <trkpt lat="43.33807" lon="-1.72332">
        <ele>203</ele>
        <time>2022-02-10T21:46:23Z</time>
      </trkpt>
      <trkpt lat="43.33767" lon="-1.7225">
        <ele>217</ele>
        <time>2022-02-10T21:46:59Z</time>
      </trkpt>
      <trkpt lat="43.33718" lon="-1.72167">
        <ele>232</ele>
        <time>2022-02-10T21:47:38Z</time>
      </trkpt>
      <trkpt lat="43.33718" lon="-1.72147">
        <ele>236</ele>
        <time>2022-02-10T21:47:45Z</time>
      </trkpt>
      <trkpt lat="43.33729" lon="-1.72105">
        <ele>242</ele>
        <time>2022-02-10T21:48:02Z</time>
      </trkpt>
      <trkpt lat="43.33711" lon="-1.7206">
        <ele>253</ele>
        <time>2022-02-10T21:48:20Z</time>
      </trkpt>
      <trkpt lat="43.33698" lon="-1.71998">
        <ele>266</ele>
        <time>2022-02-10T21:48:44Z</time>
      </trkpt>
      <trkpt lat="43.33728" lon="-1.71915">
        <ele>270</ele>
        <time>2022-02-10T21:49:18Z</time>
      </trkpt>
      <trkpt lat="43.33745" lon="-1.71853">
        <ele>270</ele>
        <time>2022-02-10T21:49:42Z</time>
      </trkpt>
      <trkpt lat="43.33724" lon="-1.71838">
        <ele>271</ele>
        <time>2022-02-10T21:49:54Z</time>
      </trkpt>
      <trkpt lat="43.33636" lon="-1.71866">
        <ele>266</ele>
        <time>2022-02-10T21:50:39Z</time>
      </trkpt>
      <trkpt lat="43.33612" lon="-1.7187">
        <ele>261</ele>
        <time>2022-02-10T21:50:51Z</time>
      </trkpt>
      <trkpt lat="43.33558" lon="-1.71927">
        <ele>259</ele>
        <time>2022-02-10T21:51:25Z</time>
      </trkpt>
      <trkpt lat="43.33518" lon="-1.71945">
        <ele>250</ele>
        <time>2022-02-10T21:51:46Z</time>
      </trkpt>
      <trkpt lat="43.33471" lon="-1.71919">
        <ele>244</ele>
        <time>2022-02-10T21:52:11Z</time>
      </trkpt>
      <trkpt lat="43.33419" lon="-1.71894">
        <ele>239</ele>
        <time>2022-02-10T21:52:39Z</time>
      </trkpt>
      <trkpt lat="43.33398" lon="-1.71867">
        <ele>238</ele>
        <time>2022-02-10T21:52:53Z</time>
      </trkpt>
      <trkpt lat="43.33383" lon="-1.71817">
        <ele>236</ele>
        <time>2022-02-10T21:53:13Z</time>
      </trkpt>
      <trkpt lat="43.33322" lon="-1.71712">
        <ele>225</ele>
        <time>2022-02-10T21:54:02Z</time>
      </trkpt>
      <trkpt lat="43.33293" lon="-1.71721">
        <ele>234</ele>
        <time>2022-02-10T21:54:17Z</time>
      </trkpt>
      <trkpt lat="43.33265" lon="-1.71692">
        <ele>233</ele>
        <time>2022-02-10T21:54:34Z</time>
      </trkpt>
      <trkpt lat="43.33217" lon="-1.71654">
        <ele>243</ele>
        <time>2022-02-10T21:55:02Z</time>
      </trkpt>
      <trkpt lat="43.33192" lon="-1.71624">
        <ele>251</ele>
        <time>2022-02-10T21:55:19Z</time>
      </trkpt>
      <trkpt lat="43.33191" lon="-1.71614">
        <ele>250</ele>
        <time>2022-02-10T21:55:22Z</time>
      </trkpt>
      <trkpt lat="43.33207" lon="-1.7159">
        <ele>243</ele>
        <time>2022-02-10T21:55:34Z</time>
      </trkpt>
      <trkpt lat="43.33218" lon="-1.71551">
        <ele>246</ele>
        <time>2022-02-10T21:55:49Z</time>
      </trkpt>
      <trkpt lat="43.33217" lon="-1.71535">
        <ele>249</ele>
        <time>2022-02-10T21:55:55Z</time>
      </trkpt>
      <trkpt lat="43.33246" lon="-1.71524">
        <ele>245</ele>
        <time>2022-02-10T21:56:10Z</time>
      </trkpt>
      <trkpt lat="43.33273" lon="-1.71491">
        <ele>248</ele>
        <time>2022-02-10T21:56:28Z</time>
      </trkpt>
      <trkpt lat="43.33323" lon="-1.71445">
        <ele>246</ele>
        <time>2022-02-10T21:56:58Z</time>
      </trkpt>
      <trkpt lat="43.33351" lon="-1.71355">
        <ele>255</ele>
        <time>2022-02-10T21:57:34Z</time>
      </trkpt>
      <trkpt lat="43.33349" lon="-1.71339">
        <ele>259</ele>
        <time>2022-02-10T21:57:40Z</time>
      </trkpt>
      <trkpt lat="43.33368" lon="-1.71333">
        <ele>253</ele>
        <time>2022-02-10T21:57:50Z</time>
      </trkpt>
      <trkpt lat="43.33385" lon="-1.71288">
        <ele>254</ele>
        <time>2022-02-10T21:58:08Z</time>
      </trkpt>
      <trkpt lat="43.33417" lon="-1.71189">
        <ele>252</ele>
        <time>2022-02-10T21:58:48Z</time>
      </trkpt>
      <trkpt lat="43.33429" lon="-1.71163">
        <ele>247</ele>
        <time>2022-02-10T21:58:59Z</time>
      </trkpt>
      <trkpt lat="43.33453" lon="-1.71123">
        <ele>237</ele>
        <time>2022-02-10T21:59:18Z</time>
      </trkpt>
      <trkpt lat="43.33471" lon="-1.711">
        <ele>231</ele>
        <time>2022-02-10T21:59:30Z</time>
      </trkpt>
      <trkpt lat="43.33464" lon="-1.7108">
        <ele>234</ele>
        <time>2022-02-10T21:59:38Z</time>
      </trkpt>
      <trkpt lat="43.33445" lon="-1.71069">
        <ele>237</ele>
        <time>2022-02-10T21:59:48Z</time>
      </trkpt>
      <trkpt lat="43.33438" lon="-1.71073">
        <ele>239</ele>
        <time>2022-02-10T21:59:52Z</time>
      </trkpt>
      <trkpt lat="43.33424" lon="-1.71072">
        <ele>243</ele>
        <time>2022-02-10T21:59:59Z</time>
      </trkpt>
      <trkpt lat="43.33397" lon="-1.71105">
        <ele>254</ele>
        <time>2022-02-10T22:00:17Z</time>
      </trkpt>
      <trkpt lat="43.33391" lon="-1.71118">
        <ele>257</ele>
        <time>2022-02-10T22:00:23Z</time>
      </trkpt>
      <trkpt lat="43.33395" lon="-1.7115">
        <ele>259</ele>
        <time>2022-02-10T22:00:35Z</time>
      </trkpt>
      <trkpt lat="43.33384" lon="-1.71146">
        <ele>263</ele>
        <time>2022-02-10T22:00:40Z</time>
      </trkpt>
      <trkpt lat="43.33377" lon="-1.71161">
        <ele>267</ele>
        <time>2022-02-10T22:00:47Z</time>
      </trkpt>
      <trkpt lat="43.33358" lon="-1.71153">
        <ele>273</ele>
        <time>2022-02-10T22:00:57Z</time>
      </trkpt>
      <trkpt lat="43.33318" lon="-1.71154">
        <ele>287</ele>
        <time>2022-02-10T22:01:17Z</time>
      </trkpt>
      <trkpt lat="43.33283" lon="-1.71171">
        <ele>301</ele>
        <time>2022-02-10T22:01:35Z</time>
      </trkpt>
      <trkpt lat="43.33226" lon="-1.7117">
        <ele>321</ele>
        <time>2022-02-10T22:02:04Z</time>
      </trkpt>
      <trkpt lat="43.33195" lon="-1.71161">
        <ele>331</ele>
        <time>2022-02-10T22:02:20Z</time>
      </trkpt>
      <trkpt lat="43.3317" lon="-1.71157">
        <ele>339</ele>
        <time>2022-02-10T22:02:32Z</time>
      </trkpt>
      <trkpt lat="43.3316" lon="-1.71165">
        <ele>341</ele>
        <time>2022-02-10T22:02:38Z</time>
      </trkpt>
      <trkpt lat="43.3315" lon="-1.71156">
        <ele>344</ele>
        <time>2022-02-10T22:02:44Z</time>
      </trkpt>
      <trkpt lat="43.33126" lon="-1.71161">
        <ele>349</ele>
        <time>2022-02-10T22:02:56Z</time>
      </trkpt>
      <trkpt lat="43.33077" lon="-1.71125">
        <ele>361</ele>
        <time>2022-02-10T22:03:24Z</time>
      </trkpt>
      <trkpt lat="43.33009" lon="-1.71117">
        <ele>368</ele>
        <time>2022-02-10T22:03:58Z</time>
      </trkpt>
      <trkpt lat="43.32955" lon="-1.71138">
        <ele>380</ele>
        <time>2022-02-10T22:04:26Z</time>
      </trkpt>
      <trkpt lat="43.32878" lon="-1.71177">
        <ele>403</ele>
        <time>2022-02-10T22:05:07Z</time>
      </trkpt>
      <trkpt lat="43.32841" lon="-1.71209">
        <ele>415</ele>
        <time>2022-02-10T22:05:29Z</time>
      </trkpt>
      <trkpt lat="43.32823" lon="-1.71245">
        <ele>422</ele>
        <time>2022-02-10T22:05:45Z</time>
      </trkpt>
      <trkpt lat="43.32721" lon="-1.71275">
        <ele>441</ele>
        <time>2022-02-10T22:06:37Z</time>
      </trkpt>
      <trkpt lat="43.32686" lon="-1.71306">
        <ele>449</ele>
        <time>2022-02-10T22:06:58Z</time>
      </trkpt>
      <trkpt lat="43.32643" lon="-1.71334">
        <ele>457</ele>
        <time>2022-02-10T22:07:22Z</time>
      </trkpt>
      <trkpt lat="43.32593" lon="-1.7138">
        <ele>462</ele>
        <time>2022-02-10T22:07:52Z</time>
      </trkpt>
      <trkpt lat="43.32558" lon="-1.71441">
        <ele>465</ele>
        <time>2022-02-10T22:08:20Z</time>
      </trkpt>
      <trkpt lat="43.32513" lon="-1.71592">
        <ele>467</ele>
        <time>2022-02-10T22:09:20Z</time>
      </trkpt>
      <trkpt lat="43.32521" lon="-1.7167">
        <ele>468</ele>
        <time>2022-02-10T22:09:49Z</time>
      </trkpt>
      <trkpt lat="43.32542" lon="-1.71752">
        <ele>465</ele>
        <time>2022-02-10T22:10:20Z</time>
      </trkpt>
      <trkpt lat="43.32564" lon="-1.71826">
        <ele>467</ele>
        <time>2022-02-10T22:10:49Z</time>
      </trkpt>
      <trkpt lat="43.3257" lon="-1.71898">
        <ele>470</ele>
        <time>2022-02-10T22:11:16Z</time>
      </trkpt>
      <trkpt lat="43.32565" lon="-1.71928">
        <ele>471</ele>
        <time>2022-02-10T22:11:27Z</time>
      </trkpt>
      <trkpt lat="43.32571" lon="-1.71979">
        <ele>473</ele>
        <time>2022-02-10T22:11:46Z</time>
      </trkpt>
      <trkpt lat="43.32567" lon="-1.72044">
        <ele>476</ele>
        <time>2022-02-10T22:12:09Z</time>
      </trkpt>
      <trkpt lat="43.32567" lon="-1.72156">
        <ele>482</ele>
        <time>2022-02-10T22:12:50Z</time>
      </trkpt>
      <trkpt lat="43.32538" lon="-1.72159">
        <ele>481</ele>
        <time>2022-02-10T22:13:05Z</time>
      </trkpt>
      <trkpt lat="43.32494" lon="-1.72146">
        <ele>478</ele>
        <time>2022-02-10T22:13:27Z</time>
      </trkpt>
      <trkpt lat="43.32444" lon="-1.72111">
        <ele>468</ele>
        <time>2022-02-10T22:13:55Z</time>
      </trkpt>
      <trkpt lat="43.32394" lon="-1.72044">
        <ele>455</ele>
        <time>2022-02-10T22:14:30Z</time>
      </trkpt>
      <trkpt lat="43.32368" lon="-1.72053">
        <ele>450</ele>
        <time>2022-02-10T22:14:44Z</time>
      </trkpt>
      <trkpt lat="43.32335" lon="-1.72096">
        <ele>445</ele>
        <time>2022-02-10T22:15:06Z</time>
      </trkpt>
      <trkpt lat="43.32305" lon="-1.72167">
        <ele>435</ele>
        <time>2022-02-10T22:15:36Z</time>
      </trkpt>
      <trkpt lat="43.32272" lon="-1.72195">
        <ele>423</ele>
        <time>2022-02-10T22:15:56Z</time>
      </trkpt>
      <trkpt lat="43.32221" lon="-1.7226">
        <ele>403</ele>
        <time>2022-02-10T22:16:31Z</time>
      </trkpt>
      <trkpt lat="43.32182" lon="-1.72264">
        <ele>392</ele>
        <time>2022-02-10T22:16:50Z</time>
      </trkpt>
      <trkpt lat="43.32134" lon="-1.72261">
        <ele>383</ele>
        <time>2022-02-10T22:17:14Z</time>
      </trkpt>
      <trkpt lat="43.32051" lon="-1.722">
        <ele>370</ele>
        <time>2022-02-10T22:18:01Z</time>
      </trkpt>
      <trkpt lat="43.32021" lon="-1.72143">
        <ele>366</ele>
        <time>2022-02-10T22:18:27Z</time>
      </trkpt>
      <trkpt lat="43.31994" lon="-1.72077">
        <ele>363</ele>
        <time>2022-02-10T22:18:54Z</time>
      </trkpt>
      <trkpt lat="43.31985" lon="-1.71992">
        <ele>360</ele>
        <time>2022-02-10T22:19:26Z</time>
      </trkpt>
      <trkpt lat="43.31951" lon="-1.71891">
        <ele>350</ele>
        <time>2022-02-10T22:20:06Z</time>
      </trkpt>
      <trkpt lat="43.31929" lon="-1.71868">
        <ele>349</ele>
        <time>2022-02-10T22:20:20Z</time>
      </trkpt>
      <trkpt lat="43.31901" lon="-1.71846">
        <ele>346</ele>
        <time>2022-02-10T22:20:36Z</time>
      </trkpt>
      <trkpt lat="43.31868" lon="-1.71811">
        <ele>339</ele>
        <time>2022-02-10T22:20:57Z</time>
      </trkpt>
      <trkpt lat="43.31848" lon="-1.71783">
        <ele>335</ele>
        <time>2022-02-10T22:21:11Z</time>
      </trkpt>
      <trkpt lat="43.31834" lon="-1.71736">
        <ele>328</ele>
        <time>2022-02-10T22:21:30Z</time>
      </trkpt>
      <trkpt lat="43.31807" lon="-1.71711">
        <ele>323</ele>
        <time>2022-02-10T22:21:46Z</time>
      </trkpt>
      <trkpt lat="43.31772" lon="-1.71691">
        <ele>318</ele>
        <time>2022-02-10T22:22:05Z</time>
      </trkpt>
      <trkpt lat="43.31735" lon="-1.7166">
        <ele>314</ele>
        <time>2022-02-10T22:22:27Z</time>
      </trkpt>
      <trkpt lat="43.31711" lon="-1.71607">
        <ele>314</ele>
        <time>2022-02-10T22:22:50Z</time>
      </trkpt>
      <trkpt lat="43.31695" lon="-1.71551">
        <ele>313</ele>
        <time>2022-02-10T22:23:11Z</time>
      </trkpt>
      <trkpt lat="43.31686" lon="-1.71484">
        <ele>308</ele>
        <time>2022-02-10T22:23:36Z</time>
      </trkpt>
      <trkpt lat="43.31667" lon="-1.71448">
        <ele>309</ele>
        <time>2022-02-10T22:23:52Z</time>
      </trkpt>
      <trkpt lat="43.3166" lon="-1.71408">
        <ele>308</ele>
        <time>2022-02-10T22:24:07Z</time>
      </trkpt>
      <trkpt lat="43.31702" lon="-1.71358">
        <ele>293</ele>
        <time>2022-02-10T22:24:35Z</time>
      </trkpt>
      <trkpt lat="43.31749" lon="-1.71322">
        <ele>280</ele>
        <time>2022-02-10T22:25:02Z</time>
      </trkpt>
      <trkpt lat="43.31785" lon="-1.71315">
        <ele>275</ele>
        <time>2022-02-10T22:25:20Z</time>
      </trkpt>
      <trkpt lat="43.31803" lon="-1.71285">
        <ele>272</ele>
        <time>2022-02-10T22:25:34Z</time>
      </trkpt>
      <trkpt lat="43.31835" lon="-1.71257">
        <ele>267</ele>
        <time>2022-02-10T22:25:53Z</time>
      </trkpt>
      <trkpt lat="43.31909" lon="-1.71252">
        <ele>272</ele>
        <time>2022-02-10T22:26:31Z</time>
      </trkpt>
      <trkpt lat="43.31923" lon="-1.71154">
        <ele>270</ele>
        <time>2022-02-10T22:27:07Z</time>
      </trkpt>
      <trkpt lat="43.31941" lon="-1.7112">
        <ele>272</ele>
        <time>2022-02-10T22:27:22Z</time>
      </trkpt>
      <trkpt lat="43.31966" lon="-1.71089">
        <ele>275</ele>
        <time>2022-02-10T22:27:39Z</time>
      </trkpt>
      <trkpt lat="43.32" lon="-1.71053">
        <ele>276</ele>
        <time>2022-02-10T22:28:01Z</time>
      </trkpt>
      <trkpt lat="43.32013" lon="-1.71001">
        <ele>271</ele>
        <time>2022-02-10T22:28:21Z</time>
      </trkpt>
      <trkpt lat="43.32025" lon="-1.70964">
        <ele>269</ele>
        <time>2022-02-10T22:28:35Z</time>
      </trkpt>
      <trkpt lat="43.3205" lon="-1.70944">
        <ele>269</ele>
        <time>2022-02-10T22:28:50Z</time>
      </trkpt>
      <trkpt lat="43.3214" lon="-1.70945">
        <ele>279</ele>
        <time>2022-02-10T22:29:35Z</time>
      </trkpt>
      <trkpt lat="43.322" lon="-1.70939">
        <ele>282</ele>
        <time>2022-02-10T22:30:05Z</time>
      </trkpt>
      <trkpt lat="43.32257" lon="-1.70903">
        <ele>277</ele>
        <time>2022-02-10T22:30:36Z</time>
      </trkpt>
      <trkpt lat="43.32294" lon="-1.70854">
        <ele>268</ele>
        <time>2022-02-10T22:31:02Z</time>
      </trkpt>
      <trkpt lat="43.32349" lon="-1.70847">
        <ele>265</ele>
        <time>2022-02-10T22:31:30Z</time>
      </trkpt>
      <trkpt lat="43.32459" lon="-1.70849">
        <ele>258</ele>
        <time>2022-02-10T22:32:25Z</time>
      </trkpt>
      <trkpt lat="43.32514" lon="-1.70815">
        <ele>246</ele>
        <time>2022-02-10T22:32:55Z</time>
      </trkpt>
      <trkpt lat="43.32568" lon="-1.70775">
        <ele>234</ele>
        <time>2022-02-10T22:33:26Z</time>
      </trkpt>
      <trkpt lat="43.3263" lon="-1.70762">
        <ele>234</ele>
        <time>2022-02-10T22:33:57Z</time>
      </trkpt>
      <trkpt lat="43.32672" lon="-1.70693">
        <ele>217</ele>
        <time>2022-02-10T22:34:30Z</time>
      </trkpt>
      <trkpt lat="43.32721" lon="-1.70595">
        <ele>200</ele>
        <time>2022-02-10T22:35:13Z</time>
      </trkpt>
      <trkpt lat="43.32768" lon="-1.70575">
        <ele>193</ele>
        <time>2022-02-10T22:35:38Z</time>
      </trkpt>
      <trkpt lat="43.32823" lon="-1.70584">
        <ele>187</ele>
        <time>2022-02-10T22:36:05Z</time>
      </trkpt>
      <trkpt lat="43.32876" lon="-1.70613">
        <ele>188</ele>
        <time>2022-02-10T22:36:34Z</time>
      </trkpt>
      <trkpt lat="43.32933" lon="-1.7064">
        <ele>186</ele>
        <time>2022-02-10T22:37:04Z</time>
      </trkpt>
      <trkpt lat="43.32993" lon="-1.70639">
        <ele>184</ele>
        <time>2022-02-10T22:37:34Z</time>
      </trkpt>
      <trkpt lat="43.33102" lon="-1.70633">
        <ele>180</ele>
        <time>2022-02-10T22:38:29Z</time>
      </trkpt>
      <trkpt lat="43.33159" lon="-1.70623">
        <ele>176</ele>
        <time>2022-02-10T22:38:57Z</time>
      </trkpt>
      <trkpt lat="43.33287" lon="-1.70623">
        <ele>166</ele>
        <time>2022-02-10T22:40:02Z</time>
      </trkpt>
      <trkpt lat="43.33359" lon="-1.70615">
        <ele>163</ele>
        <time>2022-02-10T22:40:38Z</time>
      </trkpt>
      <trkpt lat="43.33439" lon="-1.70564">
        <ele>158</ele>
        <time>2022-02-10T22:41:22Z</time>
      </trkpt>
      <trkpt lat="43.3354" lon="-1.70448">
        <ele>150</ele>
        <time>2022-02-10T22:42:28Z</time>
      </trkpt>
      <trkpt lat="43.33549" lon="-1.70417">
        <ele>144</ele>
        <time>2022-02-10T22:42:40Z</time>
      </trkpt>
      <trkpt lat="43.33574" lon="-1.7038">
        <ele>145</ele>
        <time>2022-02-10T22:42:58Z</time>
      </trkpt>
      <trkpt lat="43.33573" lon="-1.70312">
        <ele>135</ele>
        <time>2022-02-10T22:43:23Z</time>
      </trkpt>
      <trkpt lat="43.33566" lon="-1.70253">
        <ele>131</ele>
        <time>2022-02-10T22:43:45Z</time>
      </trkpt>
      <trkpt lat="43.33519" lon="-1.70141">
        <ele>117</ele>
        <time>2022-02-10T22:44:32Z</time>
      </trkpt>
      <trkpt lat="43.33503" lon="-1.70122">
        <ele>113</ele>
        <time>2022-02-10T22:44:42Z</time>
      </trkpt>
      <trkpt lat="43.33503" lon="-1.70078">
        <ele>106</ele>
        <time>2022-02-10T22:44:58Z</time>
      </trkpt>
      <trkpt lat="43.33487" lon="-1.69979">
        <ele>95</ele>
        <time>2022-02-10T22:45:35Z</time>
      </trkpt>
      <trkpt lat="43.33523" lon="-1.6991">
        <ele>91</ele>
        <time>2022-02-10T22:46:06Z</time>
      </trkpt>
      <trkpt lat="43.33546" lon="-1.69854">
        <ele>91</ele>
        <time>2022-02-10T22:46:30Z</time>
      </trkpt>
      <trkpt lat="43.33585" lon="-1.69805">
        <ele>85</ele>
        <time>2022-02-10T22:46:56Z</time>
      </trkpt>
      <trkpt lat="43.33583" lon="-1.69767">
        <ele>86</ele>
        <time>2022-02-10T22:47:10Z</time>
      </trkpt>
      <trkpt lat="43.33573" lon="-1.69726">
        <ele>87</ele>
        <time>2022-02-10T22:47:26Z</time>
      </trkpt>
      <trkpt lat="43.33549" lon="-1.69681">
        <ele>90</ele>
        <time>2022-02-10T22:47:46Z</time>
      </trkpt>
      <trkpt lat="43.33548" lon="-1.69631">
        <ele>87</ele>
        <time>2022-02-10T22:48:04Z</time>
      </trkpt>
      <trkpt lat="43.3354" lon="-1.69588">
        <ele>85</ele>
        <time>2022-02-10T22:48:20Z</time>
      </trkpt>
      <trkpt lat="43.33513" lon="-1.69567">
        <ele>86</ele>
        <time>2022-02-10T22:48:36Z</time>
      </trkpt>
      <trkpt lat="43.33477" lon="-1.69553">
        <ele>89</ele>
        <time>2022-02-10T22:48:55Z</time>
      </trkpt>
      <trkpt lat="43.33452" lon="-1.69537">
        <ele>91</ele>
        <time>2022-02-10T22:49:08Z</time>
      </trkpt>
      <trkpt lat="43.33441" lon="-1.69487">
        <ele>90</ele>
        <time>2022-02-10T22:49:27Z</time>
      </trkpt>
      <trkpt lat="43.33413" lon="-1.69441">
        <ele>95</ele>
        <time>2022-02-10T22:49:49Z</time>
      </trkpt>
      <trkpt lat="43.3338" lon="-1.69433">
        <ele>101</ele>
        <time>2022-02-10T22:50:06Z</time>
      </trkpt>
      <trkpt lat="43.33339" lon="-1.69435">
        <ele>110</ele>
        <time>2022-02-10T22:50:26Z</time>
      </trkpt>
      <trkpt lat="43.33296" lon="-1.69431">
        <ele>120</ele>
        <time>2022-02-10T22:50:48Z</time>
      </trkpt>
      <trkpt lat="43.33289" lon="-1.69405">
        <ele>120</ele>
        <time>2022-02-10T22:50:58Z</time>
      </trkpt>
      <trkpt lat="43.33293" lon="-1.69366">
        <ele>119</ele>
        <time>2022-02-10T22:51:12Z</time>
      </trkpt>
      <trkpt lat="43.33266" lon="-1.69305">
        <ele>126</ele>
        <time>2022-02-10T22:51:38Z</time>
      </trkpt>
      <trkpt lat="43.33237" lon="-1.6927">
        <ele>134</ele>
        <time>2022-02-10T22:51:58Z</time>
      </trkpt>
      <trkpt lat="43.33215" lon="-1.69233">
        <ele>139</ele>
        <time>2022-02-10T22:52:15Z</time>
      </trkpt>
      <trkpt lat="43.33195" lon="-1.69191">
        <ele>143</ele>
        <time>2022-02-10T22:52:33Z</time>
      </trkpt>
      <trkpt lat="43.33187" lon="-1.69203">
        <ele>147</ele>
        <time>2022-02-10T22:52:39Z</time>
      </trkpt>
      <trkpt lat="43.33189" lon="-1.69236">
        <ele>150</ele>
        <time>2022-02-10T22:52:51Z</time>
      </trkpt>
      <trkpt lat="43.33181" lon="-1.69282">
        <ele>156</ele>
        <time>2022-02-10T22:53:09Z</time>
      </trkpt>
      <trkpt lat="43.33166" lon="-1.69327">
        <ele>164</ele>
        <time>2022-02-10T22:53:27Z</time>
      </trkpt>
      <trkpt lat="43.33159" lon="-1.69327">
        <ele>166</ele>
        <time>2022-02-10T22:53:30Z</time>
      </trkpt>
      <trkpt lat="43.33137" lon="-1.69292">
        <ele>172</ele>
        <time>2022-02-10T22:53:47Z</time>
      </trkpt>
      <trkpt lat="43.33109" lon="-1.69282">
        <ele>181</ele>
        <time>2022-02-10T22:54:01Z</time>
      </trkpt>
      <trkpt lat="43.33082" lon="-1.69268">
        <ele>190</ele>
        <time>2022-02-10T22:54:16Z</time>
      </trkpt>
      <trkpt lat="43.33041" lon="-1.69268">
        <ele>203</ele>
        <time>2022-02-10T22:54:36Z</time>
      </trkpt>
      <trkpt lat="43.32978" lon="-1.69249">
        <ele>218</ele>
        <time>2022-02-10T22:55:09Z</time>
      </trkpt>
      <trkpt lat="43.32883" lon="-1.69305">
        <ele>249</ele>
        <time>2022-02-10T22:56:00Z</time>
      </trkpt>
      <trkpt lat="43.32757" lon="-1.69407">
        <ele>284</ele>
        <time>2022-02-10T22:57:14Z</time>
      </trkpt>
      <trkpt lat="43.32669" lon="-1.69489">
        <ele>295</ele>
        <time>2022-02-10T22:58:07Z</time>
      </trkpt>
      <trkpt lat="43.32603" lon="-1.69537">
        <ele>299</ele>
        <time>2022-02-10T22:58:44Z</time>
      </trkpt>
      <trkpt lat="43.32578" lon="-1.69584">
        <ele>309</ele>
        <time>2022-02-10T22:59:05Z</time>
      </trkpt>
      <trkpt lat="43.3253" lon="-1.69717">
        <ele>317</ele>
        <time>2022-02-10T22:59:59Z</time>
      </trkpt>
      <trkpt lat="43.32485" lon="-1.69828">
        <ele>327</ele>
        <time>2022-02-10T23:00:46Z</time>
      </trkpt>
      <trkpt lat="43.32464" lon="-1.69853">
        <ele>327</ele>
        <time>2022-02-10T23:01:00Z</time>
      </trkpt>
      <trkpt lat="43.32423" lon="-1.69863">
        <ele>330</ele>
        <time>2022-02-10T23:01:20Z</time>
      </trkpt>
      <trkpt lat="43.32367" lon="-1.69916">
        <ele>329</ele>
        <time>2022-02-10T23:01:54Z</time>
      </trkpt>
      <trkpt lat="43.32372" lon="-1.69983">
        <ele>336</ele>
        <time>2022-02-10T23:02:19Z</time>
      </trkpt>
      <trkpt lat="43.3243" lon="-1.70079">
        <ele>336</ele>
        <time>2022-02-10T23:03:04Z</time>
      </trkpt>
      <trkpt lat="43.32475" lon="-1.70171">
        <ele>332</ele>
        <time>2022-02-10T23:03:45Z</time>
      </trkpt>
      <trkpt lat="43.3245" lon="-1.70193">
        <ele>342</ele>
        <time>2022-02-10T23:04:00Z</time>
      </trkpt>
      <trkpt lat="43.32409" lon="-1.7019">
        <ele>356</ele>
        <time>2022-02-10T23:04:20Z</time>
      </trkpt>
      <trkpt lat="43.32336" lon="-1.70158">
        <ele>368</ele>
        <time>2022-02-10T23:04:59Z</time>
      </trkpt>
      <trkpt lat="43.32291" lon="-1.70082">
        <ele>359</ele>
        <time>2022-02-10T23:05:34Z</time>
      </trkpt>
      <trkpt lat="43.32213" lon="-1.70017">
        <ele>338</ele>
        <time>2022-02-10T23:06:20Z</time>
      </trkpt>
      <trkpt lat="43.32122" lon="-1.70001">
        <ele>311</ele>
        <time>2022-02-10T23:07:06Z</time>
      </trkpt>
      <trkpt lat="43.32009" lon="-1.69977">
        <ele>294</ele>
        <time>2022-02-10T23:08:03Z</time>
      </trkpt>
      <trkpt lat="43.31904" lon="-1.69978">
        <ele>287</ele>
        <time>2022-02-10T23:08:56Z</time>
      </trkpt>
      <trkpt lat="43.31886" lon="-1.70056">
        <ele>282</ele>
        <time>2022-02-10T23:09:25Z</time>
      </trkpt>
      <trkpt lat="43.31925" lon="-1.70126">
        <ele>269</ele>
        <time>2022-02-10T23:09:57Z</time>
      </trkpt>
      <trkpt lat="43.31935" lon="-1.70203">
        <ele>264</ele>
        <time>2022-02-10T23:10:26Z</time>
      </trkpt>
      <trkpt lat="43.31907" lon="-1.70249">
        <ele>261</ele>
        <time>2022-02-10T23:10:48Z</time>
      </trkpt>
      <trkpt lat="43.31882" lon="-1.70246">
        <ele>266</ele>
        <time>2022-02-10T23:11:00Z</time>
      </trkpt>
      <trkpt lat="43.31833" lon="-1.70202">
        <ele>280</ele>
        <time>2022-02-10T23:11:30Z</time>
      </trkpt>
      <trkpt lat="43.31733" lon="-1.70098">
        <ele>317</ele>
        <time>2022-02-10T23:12:32Z</time>
      </trkpt>
      <trkpt lat="43.31669" lon="-1.70088">
        <ele>333</ele>
        <time>2022-02-10T23:13:05Z</time>
      </trkpt>
      <trkpt lat="43.31551" lon="-1.70089">
        <ele>375</ele>
        <time>2022-02-10T23:14:04Z</time>
      </trkpt>
      <trkpt lat="43.31538" lon="-1.70068">
        <ele>377</ele>
        <time>2022-02-10T23:14:14Z</time>
      </trkpt>
      <trkpt lat="43.31507" lon="-1.70065">
        <ele>390</ele>
        <time>2022-02-10T23:14:29Z</time>
      </trkpt>
      <trkpt lat="43.31429" lon="-1.70069">
        <ele>420</ele>
        <time>2022-02-10T23:15:08Z</time>
      </trkpt>
      <trkpt lat="43.31315" lon="-1.7007">
        <ele>463</ele>
        <time>2022-02-10T23:16:05Z</time>
      </trkpt>
      <trkpt lat="43.31217" lon="-1.70065">
        <ele>490</ele>
        <time>2022-02-10T23:16:54Z</time>
      </trkpt>
      <trkpt lat="43.31163" lon="-1.70026">
        <ele>504</ele>
        <time>2022-02-10T23:17:25Z</time>
      </trkpt>
      <trkpt lat="43.31177" lon="-1.69949">
        <ele>502</ele>
        <time>2022-02-10T23:17:54Z</time>
      </trkpt>
      <trkpt lat="43.31182" lon="-1.69865">
        <ele>498</ele>
        <time>2022-02-10T23:18:24Z</time>
      </trkpt>
      <trkpt lat="43.31214" lon="-1.69798">
        <ele>489</ele>
        <time>2022-02-10T23:18:54Z</time>
      </trkpt>
      <trkpt lat="43.31268" lon="-1.69736">
        <ele>474</ele>
        <time>2022-02-10T23:19:29Z</time>
      </trkpt>
      <trkpt lat="43.31294" lon="-1.69645">
        <ele>463</ele>
        <time>2022-02-10T23:20:04Z</time>
      </trkpt>
      <trkpt lat="43.31287" lon="-1.69552">
        <ele>453</ele>
        <time>2022-02-10T23:20:39Z</time>
      </trkpt>
      <trkpt lat="43.31294" lon="-1.69504">
        <ele>444</ele>
        <time>2022-02-10T23:20:56Z</time>
      </trkpt>
      <trkpt lat="43.31289" lon="-1.69472">
        <ele>437</ele>
        <time>2022-02-10T23:21:08Z</time>
      </trkpt>
      <trkpt lat="43.31325" lon="-1.69491">
        <ele>433</ele>
        <time>2022-02-10T23:21:28Z</time>
      </trkpt>
      <trkpt lat="43.31362" lon="-1.69547">
        <ele>431</ele>
        <time>2022-02-10T23:21:55Z</time>
      </trkpt>
      <trkpt lat="43.31371" lon="-1.69469">
        <ele>418</ele>
        <time>2022-02-10T23:22:24Z</time>
      </trkpt>
      <trkpt lat="43.31364" lon="-1.6941">
        <ele>408</ele>
        <time>2022-02-10T23:22:46Z</time>
      </trkpt>
      <trkpt lat="43.31431" lon="-1.6935">
        <ele>394</ele>
        <time>2022-02-10T23:23:26Z</time>
      </trkpt>
      <trkpt lat="43.31517" lon="-1.69336">
        <ele>387</ele>
        <time>2022-02-10T23:24:09Z</time>
      </trkpt>
      <trkpt lat="43.31723" lon="-1.69383">
        <ele>360</ele>
        <time>2022-02-10T23:25:53Z</time>
      </trkpt>
      <trkpt lat="43.31757" lon="-1.69403">
        <ele>357</ele>
        <time>2022-02-10T23:26:12Z</time>
      </trkpt>
      <trkpt lat="43.31784" lon="-1.69393">
        <ele>351</ele>
        <time>2022-02-10T23:26:26Z</time>
      </trkpt>
      <trkpt lat="43.31804" lon="-1.6935">
        <ele>344</ele>
        <time>2022-02-10T23:26:45Z</time>
      </trkpt>
      <trkpt lat="43.31842" lon="-1.69312">
        <ele>332</ele>
        <time>2022-02-10T23:27:08Z</time>
      </trkpt>
      <trkpt lat="43.31853" lon="-1.69247">
        <ele>326</ele>
        <time>2022-02-10T23:27:32Z</time>
      </trkpt>
      <trkpt lat="43.31827" lon="-1.69193">
        <ele>322</ele>
        <time>2022-02-10T23:27:56Z</time>
      </trkpt>
      <trkpt lat="43.31792" lon="-1.69172">
        <ele>324</ele>
        <time>2022-02-10T23:28:15Z</time>
      </trkpt>
      <trkpt lat="43.31731" lon="-1.6905">
        <ele>315</ele>
        <time>2022-02-10T23:29:09Z</time>
      </trkpt>
      <trkpt lat="43.31689" lon="-1.68996">
        <ele>314</ele>
        <time>2022-02-10T23:29:38Z</time>
      </trkpt>
      <trkpt lat="43.31615" lon="-1.68988">
        <ele>314</ele>
        <time>2022-02-10T23:30:15Z</time>
      </trkpt>
      <trkpt lat="43.31542" lon="-1.69033">
        <ele>320</ele>
        <time>2022-02-10T23:30:55Z</time>
      </trkpt>
      <trkpt lat="43.31485" lon="-1.69078">
        <ele>324</ele>
        <time>2022-02-10T23:31:28Z</time>
      </trkpt>
      <trkpt lat="43.31436" lon="-1.69036">
        <ele>313</ele>
        <time>2022-02-10T23:31:57Z</time>
      </trkpt>
      <trkpt lat="43.31383" lon="-1.69029">
        <ele>311</ele>
        <time>2022-02-10T23:32:23Z</time>
      </trkpt>
      <trkpt lat="43.31434" lon="-1.68999">
        <ele>305</ele>
        <time>2022-02-10T23:32:51Z</time>
      </trkpt>
      <trkpt lat="43.31465" lon="-1.68972">
        <ele>296</ele>
        <time>2022-02-10T23:33:09Z</time>
      </trkpt>
      <trkpt lat="43.31461" lon="-1.68957">
        <ele>292</ele>
        <time>2022-02-10T23:33:15Z</time>
      </trkpt>
      <trkpt lat="43.3143" lon="-1.68941">
        <ele>288</ele>
        <time>2022-02-10T23:33:32Z</time>
      </trkpt>
      <trkpt lat="43.31462" lon="-1.68935">
        <ele>285</ele>
        <time>2022-02-10T23:33:48Z</time>
      </trkpt>
      <trkpt lat="43.31504" lon="-1.68938">
        <ele>285</ele>
        <time>2022-02-10T23:34:09Z</time>
      </trkpt>
      <trkpt lat="43.31479" lon="-1.68918">
        <ele>279</ele>
        <time>2022-02-10T23:34:24Z</time>
      </trkpt>
      <trkpt lat="43.31442" lon="-1.68923">
        <ele>283</ele>
        <time>2022-02-10T23:34:42Z</time>
      </trkpt>
      <trkpt lat="43.31404" lon="-1.68936">
        <ele>290</ele>
        <time>2022-02-10T23:35:02Z</time>
      </trkpt>
      <trkpt lat="43.31405" lon="-1.68956">
        <ele>295</ele>
        <time>2022-02-10T23:35:09Z</time>
      </trkpt>
      <trkpt lat="43.31378" lon="-1.68971">
        <ele>301</ele>
        <time>2022-02-10T23:35:24Z</time>
      </trkpt>
      <trkpt lat="43.31367" lon="-1.68935">
        <ele>300</ele>
        <time>2022-02-10T23:35:38Z</time>
      </trkpt>
      <trkpt lat="43.31441" lon="-1.68803">
        <ele>278</ele>
        <time>2022-02-10T23:36:39Z</time>
      </trkpt>
      <trkpt lat="43.31402" lon="-1.68806">
        <ele>291</ele>
        <time>2022-02-10T23:36:58Z</time>
      </trkpt>
      <trkpt lat="43.31346" lon="-1.68838">
        <ele>311</ele>
        <time>2022-02-10T23:37:28Z</time>
      </trkpt>
      <trkpt lat="43.31272" lon="-1.68847">
        <ele>328</ele>
        <time>2022-02-10T23:38:06Z</time>
      </trkpt>
      <trkpt lat="43.31237" lon="-1.68866">
        <ele>333</ele>
        <time>2022-02-10T23:38:24Z</time>
      </trkpt>
      <trkpt lat="43.31206" lon="-1.68907">
        <ele>337</ele>
        <time>2022-02-10T23:38:46Z</time>
      </trkpt>
      <trkpt lat="43.31155" lon="-1.69029">
        <ele>358</ele>
        <time>2022-02-10T23:39:37Z</time>
      </trkpt>
      <trkpt lat="43.31166" lon="-1.69096">
        <ele>366</ele>
        <time>2022-02-10T23:40:02Z</time>
      </trkpt>
      <trkpt lat="43.31187" lon="-1.69148">
        <ele>369</ele>
        <time>2022-02-10T23:40:24Z</time>
      </trkpt>
      <trkpt lat="43.31217" lon="-1.69206">
        <ele>375</ele>
        <time>2022-02-10T23:40:50Z</time>
      </trkpt>
      <trkpt lat="43.31222" lon="-1.69259">
        <ele>387</ele>
        <time>2022-02-10T23:41:09Z</time>
      </trkpt>
      <trkpt lat="43.31193" lon="-1.69246">
        <ele>386</ele>
        <time>2022-02-10T23:41:24Z</time>
      </trkpt>
      <trkpt lat="43.31192" lon="-1.69275">
        <ele>394</ele>
        <time>2022-02-10T23:41:35Z</time>
      </trkpt>
      <trkpt lat="43.31202" lon="-1.69309">
        <ele>402</ele>
        <time>2022-02-10T23:41:48Z</time>
      </trkpt>
      <trkpt lat="43.31185" lon="-1.69352">
        <ele>416</ele>
        <time>2022-02-10T23:42:06Z</time>
      </trkpt>
      <trkpt lat="43.31163" lon="-1.69381">
        <ele>427</ele>
        <time>2022-02-10T23:42:21Z</time>
      </trkpt>
      <trkpt lat="43.31167" lon="-1.69428">
        <ele>441</ele>
        <time>2022-02-10T23:42:39Z</time>
      </trkpt>
      <trkpt lat="43.31177" lon="-1.69477">
        <ele>453</ele>
        <time>2022-02-10T23:42:57Z</time>
      </trkpt>
      <trkpt lat="43.31193" lon="-1.69534">
        <ele>465</ele>
        <time>2022-02-10T23:43:20Z</time>
      </trkpt>
      <trkpt lat="43.31184" lon="-1.69609">
        <ele>478</ele>
        <time>2022-02-10T23:43:47Z</time>
      </trkpt>
      <trkpt lat="43.31172" lon="-1.69676">
        <ele>490</ele>
        <time>2022-02-10T23:44:12Z</time>
      </trkpt>
      <trkpt lat="43.31029" lon="-1.69845">
        <ele>529</ele>
        <time>2022-02-10T23:45:47Z</time>
      </trkpt>
      <trkpt lat="43.30966" lon="-1.69927">
        <ele>550</ele>
        <time>2022-02-10T23:46:30Z</time>
      </trkpt>
      <trkpt lat="43.30953" lon="-1.69985">
        <ele>556</ele>
        <time>2022-02-10T23:46:52Z</time>
      </trkpt>
      <trkpt lat="43.30914" lon="-1.70116">
        <ele>555</ele>
        <time>2022-02-10T23:47:44Z</time>
      </trkpt>
      <trkpt lat="43.30916" lon="-1.70219">
        <ele>553</ele>
        <time>2022-02-10T23:48:21Z</time>
      </trkpt>
      <trkpt lat="43.30911" lon="-1.70341">
        <ele>556</ele>
        <time>2022-02-10T23:49:06Z</time>
      </trkpt>
      <trkpt lat="43.30861" lon="-1.7044">
        <ele>545</ele>
        <time>2022-02-10T23:49:50Z</time>
      </trkpt>
      <trkpt lat="43.30796" lon="-1.70538">
        <ele>538</ele>
        <time>2022-02-10T23:50:38Z</time>
      </trkpt>
      <trkpt lat="43.3077" lon="-1.7061">
        <ele>536</ele>
        <time>2022-02-10T23:51:07Z</time>
      </trkpt>
      <trkpt lat="43.30701" lon="-1.707">
        <ele>527</ele>
        <time>2022-02-10T23:51:55Z</time>
      </trkpt>
      <trkpt lat="43.3053" lon="-1.70887">
        <ele>517</ele>
        <time>2022-02-10T23:53:44Z</time>
      </trkpt>
      <trkpt lat="43.30448" lon="-1.70912">
        <ele>515</ele>
        <time>2022-02-10T23:54:26Z</time>
      </trkpt>
      <trkpt lat="43.30346" lon="-1.7095">
        <ele>504</ele>
        <time>2022-02-10T23:55:19Z</time>
      </trkpt>
      <trkpt lat="43.30323" lon="-1.70966">
        <ele>500</ele>
        <time>2022-02-10T23:55:32Z</time>
      </trkpt>
      <trkpt lat="43.30309" lon="-1.70961">
        <ele>497</ele>
        <time>2022-02-10T23:55:39Z</time>
      </trkpt>
      <trkpt lat="43.30308" lon="-1.70973">
        <ele>496</ele>
        <time>2022-02-10T23:55:44Z</time>
      </trkpt>
      <trkpt lat="43.30278" lon="-1.7098">
        <ele>490</ele>
        <time>2022-02-10T23:55:59Z</time>
      </trkpt>
      <trkpt lat="43.30239" lon="-1.71005">
        <ele>479</ele>
        <time>2022-02-10T23:56:20Z</time>
      </trkpt>
      <trkpt lat="43.30202" lon="-1.71085">
        <ele>460</ele>
        <time>2022-02-10T23:56:55Z</time>
      </trkpt>
      <trkpt lat="43.30149" lon="-1.71167">
        <ele>447</ele>
        <time>2022-02-10T23:57:35Z</time>
      </trkpt>
      <trkpt lat="43.3011" lon="-1.71239">
        <ele>443</ele>
        <time>2022-02-10T23:58:08Z</time>
      </trkpt>
      <trkpt lat="43.30075" lon="-1.71242">
        <ele>446</ele>
        <time>2022-02-10T23:58:25Z</time>
      </trkpt>
      <trkpt lat="43.30048" lon="-1.7128">
        <ele>438</ele>
        <time>2022-02-10T23:58:44Z</time>
      </trkpt>
      <trkpt lat="43.30001" lon="-1.7133">
        <ele>442</ele>
        <time>2022-02-10T23:59:14Z</time>
      </trkpt>
      <trkpt lat="43.29975" lon="-1.71405">
        <ele>436</ele>
        <time>2022-02-10T23:59:44Z</time>
      </trkpt>
      <trkpt lat="43.29978" lon="-1.71477">
        <ele>430</ele>
        <time>2022-02-11T00:00:11Z</time>
      </trkpt>
      <trkpt lat="43.29999" lon="-1.71547">
        <ele>418</ele>
        <time>2022-02-11T00:00:38Z</time>
      </trkpt>
      <trkpt lat="43.30026" lon="-1.71655">
        <ele>383</ele>
        <time>2022-02-11T00:01:20Z</time>
      </trkpt>
      <trkpt lat="43.3005" lon="-1.71769">
        <ele>357</ele>
        <time>2022-02-11T00:02:03Z</time>
      </trkpt>
      <trkpt lat="43.30065" lon="-1.71889">
        <ele>353</ele>
        <time>2022-02-11T00:02:47Z</time>
      </trkpt>
      <trkpt lat="43.3007" lon="-1.72015">
        <ele>361</ele>
        <time>2022-02-11T00:03:33Z</time>
      </trkpt>
      <trkpt lat="43.3005" lon="-1.72122">
        <ele>366</ele>
        <time>2022-02-11T00:04:14Z</time>
      </trkpt>
      <trkpt lat="43.29997" lon="-1.72273">
        <ele>358</ele>
        <time>2022-02-11T00:05:15Z</time>
      </trkpt>
      <trkpt lat="43.29985" lon="-1.72355">
        <ele>349</ele>
        <time>2022-02-11T00:05:45Z</time>
      </trkpt>
      <trkpt lat="43.29979" lon="-1.7243">
        <ele>335</ele>
        <time>2022-02-11T00:06:13Z</time>
      </trkpt>
      <trkpt lat="43.29994" lon="-1.72523">
        <ele>313</ele>
        <time>2022-02-11T00:06:47Z</time>
      </trkpt>
      <trkpt lat="43.30056" lon="-1.72691">
        <ele>247</ele>
        <time>2022-02-11T00:07:56Z</time>
      </trkpt>
      <trkpt lat="43.30105" lon="-1.72796">
        <ele>210</ele>
        <time>2022-02-11T00:08:41Z</time>
      </trkpt>
      <trkpt lat="43.30165" lon="-1.7289">
        <ele>179</ele>
        <time>2022-02-11T00:09:27Z</time>
      </trkpt>
      <trkpt lat="43.30259" lon="-1.72987">
        <ele>140</ele>
        <time>2022-02-11T00:10:26Z</time>
      </trkpt>
      <trkpt lat="43.30436" lon="-1.73211">
        <ele>48</ele>
        <time>2022-02-11T00:12:26Z</time>
      </trkpt>
      <trkpt lat="43.30448" lon="-1.73279">
        <ele>30</ele>
        <time>2022-02-11T00:12:52Z</time>
      </trkpt>
      <trkpt lat="43.30467" lon="-1.73268">
        <ele>31</ele>
        <time>2022-02-11T00:13:02Z</time>
      </trkpt>
      <trkpt lat="43.30474" lon="-1.73217">
        <ele>39</ele>
        <time>2022-02-11T00:13:21Z</time>
      </trkpt>
      <trkpt lat="43.30493" lon="-1.73168">
        <ele>38</ele>
        <time>2022-02-11T00:13:41Z</time>
      </trkpt>
      <trkpt lat="43.30478" lon="-1.73136">
        <ele>47</ele>
        <time>2022-02-11T00:13:55Z</time>
      </trkpt>
      <trkpt lat="43.30459" lon="-1.72983">
        <ele>65</ele>
        <time>2022-02-11T00:14:51Z</time>
      </trkpt>
      <trkpt lat="43.30443" lon="-1.72953">
        <ele>67</ele>
        <time>2022-02-11T00:15:05Z</time>
      </trkpt>
      <trkpt lat="43.3043" lon="-1.72908">
        <ele>69</ele>
        <time>2022-02-11T00:15:23Z</time>
      </trkpt>
      <trkpt lat="43.30429" lon="-1.72875">
        <ele>73</ele>
        <time>2022-02-11T00:15:35Z</time>
      </trkpt>
      <trkpt lat="43.30421" lon="-1.72835">
        <ele>75</ele>
        <time>2022-02-11T00:15:50Z</time>
      </trkpt>
      <trkpt lat="43.30438" lon="-1.72853">
        <ele>78</ele>
        <time>2022-02-11T00:16:00Z</time>
      </trkpt>
      <trkpt lat="43.30456" lon="-1.72892">
        <ele>77</ele>
        <time>2022-02-11T00:16:17Z</time>
      </trkpt>
      <trkpt lat="43.30501" lon="-1.72942">
        <ele>77</ele>
        <time>2022-02-11T00:16:46Z</time>
      </trkpt>
      <trkpt lat="43.3053" lon="-1.72998">
        <ele>80</ele>
        <time>2022-02-11T00:17:11Z</time>
      </trkpt>
      <trkpt lat="43.3056" lon="-1.73035">
        <ele>87</ele>
        <time>2022-02-11T00:17:31Z</time>
      </trkpt>
      <trkpt lat="43.306" lon="-1.73037">
        <ele>105</ele>
        <time>2022-02-11T00:17:51Z</time>
      </trkpt>
      <trkpt lat="43.30627" lon="-1.73092">
        <ele>102</ele>
        <time>2022-02-11T00:18:16Z</time>
      </trkpt>
      <trkpt lat="43.30653" lon="-1.73166">
        <ele>98</ele>
        <time>2022-02-11T00:18:46Z</time>
      </trkpt>
      <trkpt lat="43.3069" lon="-1.73154">
        <ele>104</ele>
        <time>2022-02-11T00:19:05Z</time>
      </trkpt>
      <trkpt lat="43.30727" lon="-1.73105">
        <ele>115</ele>
        <time>2022-02-11T00:19:30Z</time>
      </trkpt>
      <trkpt lat="43.30776" lon="-1.73094">
        <ele>117</ele>
        <time>2022-02-11T00:19:55Z</time>
      </trkpt>
      <trkpt lat="43.30815" lon="-1.73078">
        <ele>121</ele>
        <time>2022-02-11T00:20:16Z</time>
      </trkpt>
      <trkpt lat="43.30871" lon="-1.73084">
        <ele>124</ele>
        <time>2022-02-11T00:20:44Z</time>
      </trkpt>
      <trkpt lat="43.30932" lon="-1.73075">
        <ele>136</ele>
        <time>2022-02-11T00:21:14Z</time>
      </trkpt>
      <trkpt lat="43.30988" lon="-1.73097">
        <ele>138</ele>
        <time>2022-02-11T00:21:43Z</time>
      </trkpt>
      <trkpt lat="43.3104" lon="-1.73151">
        <ele>133</ele>
        <time>2022-02-11T00:22:16Z</time>
      </trkpt>
      <trkpt lat="43.31062" lon="-1.73111">
        <ele>148</ele>
        <time>2022-02-11T00:22:34Z</time>
      </trkpt>
      <trkpt lat="43.31073" lon="-1.73068">
        <ele>160</ele>
        <time>2022-02-11T00:22:51Z</time>
      </trkpt>
      <trkpt lat="43.31062" lon="-1.73">
        <ele>177</ele>
        <time>2022-02-11T00:23:16Z</time>
      </trkpt>
      <trkpt lat="43.3105" lon="-1.72974">
        <ele>184</ele>
        <time>2022-02-11T00:23:28Z</time>
      </trkpt>
      <trkpt lat="43.31042" lon="-1.72917">
        <ele>200</ele>
        <time>2022-02-11T00:23:49Z</time>
      </trkpt>
      <trkpt lat="43.31025" lon="-1.72847">
        <ele>225</ele>
        <time>2022-02-11T00:24:16Z</time>
      </trkpt>
      <trkpt lat="43.30997" lon="-1.72792">
        <ele>251</ele>
        <time>2022-02-11T00:24:40Z</time>
      </trkpt>
      <trkpt lat="43.30983" lon="-1.72757">
        <ele>265</ele>
        <time>2022-02-11T00:24:55Z</time>
      </trkpt>
      <trkpt lat="43.3098" lon="-1.72687">
        <ele>289</ele>
        <time>2022-02-11T00:25:20Z</time>
      </trkpt>
      <trkpt lat="43.30949" lon="-1.72641">
        <ele>311</ele>
        <time>2022-02-11T00:25:43Z</time>
      </trkpt>
      <trkpt lat="43.30928" lon="-1.72618">
        <ele>323</ele>
        <time>2022-02-11T00:25:56Z</time>
      </trkpt>
      <trkpt lat="43.30914" lon="-1.7259">
        <ele>334</ele>
        <time>2022-02-11T00:26:09Z</time>
      </trkpt>
      <trkpt lat="43.30929" lon="-1.72575">
        <ele>333</ele>
        <time>2022-02-11T00:26:18Z</time>
      </trkpt>
      <trkpt lat="43.30945" lon="-1.72488">
        <ele>338</ele>
        <time>2022-02-11T00:26:51Z</time>
      </trkpt>
      <trkpt lat="43.30956" lon="-1.72372">
        <ele>358</ele>
        <time>2022-02-11T00:27:33Z</time>
      </trkpt>
      <trkpt lat="43.30993" lon="-1.72155">
        <ele>411</ele>
        <time>2022-02-11T00:28:54Z</time>
      </trkpt>
      <trkpt lat="43.30993" lon="-1.7205">
        <ele>443</ele>
        <time>2022-02-11T00:29:33Z</time>
      </trkpt>
      <trkpt lat="43.30998" lon="-1.72004">
        <ele>458</ele>
        <time>2022-02-11T00:29:50Z</time>
      </trkpt>
      <trkpt lat="43.30988" lon="-1.71909">
        <ele>464</ele>
        <time>2022-02-11T00:30:25Z</time>
      </trkpt>
      <trkpt lat="43.30985" lon="-1.71855">
        <ele>463</ele>
        <time>2022-02-11T00:30:44Z</time>
      </trkpt>
      <trkpt lat="43.30985" lon="-1.718">
        <ele>465</ele>
        <time>2022-02-11T00:31:04Z</time>
      </trkpt>
      <trkpt lat="43.30978" lon="-1.71691">
        <ele>471</ele>
        <time>2022-02-11T00:31:44Z</time>
      </trkpt>
      <trkpt lat="43.30984" lon="-1.71639">
        <ele>476</ele>
        <time>2022-02-11T00:32:03Z</time>
      </trkpt>
      <trkpt lat="43.31019" lon="-1.7152">
        <ele>475</ele>
        <time>2022-02-11T00:32:50Z</time>
      </trkpt>
      <trkpt lat="43.31045" lon="-1.71473">
        <ele>467</ele>
        <time>2022-02-11T00:33:12Z</time>
      </trkpt>
      <trkpt lat="43.31036" lon="-1.71458">
        <ele>462</ele>
        <time>2022-02-11T00:33:19Z</time>
      </trkpt>
      <trkpt lat="43.31046" lon="-1.71437">
        <ele>457</ele>
        <time>2022-02-11T00:33:28Z</time>
      </trkpt>
      <trkpt lat="43.31024" lon="-1.71425">
        <ele>451</ele>
        <time>2022-02-11T00:33:40Z</time>
      </trkpt>
      <trkpt lat="43.31048" lon="-1.71392">
        <ele>443</ele>
        <time>2022-02-11T00:33:57Z</time>
      </trkpt>
      <trkpt lat="43.31054" lon="-1.71356">
        <ele>431</ele>
        <time>2022-02-11T00:34:10Z</time>
      </trkpt>
      <trkpt lat="43.31054" lon="-1.71337">
        <ele>425</ele>
        <time>2022-02-11T00:34:17Z</time>
      </trkpt>
      <trkpt lat="43.3105" lon="-1.71307">
        <ele>420</ele>
        <time>2022-02-11T00:34:28Z</time>
      </trkpt>
      <trkpt lat="43.31073" lon="-1.71277">
        <ele>418</ele>
        <time>2022-02-11T00:34:44Z</time>
      </trkpt>
      <trkpt lat="43.31096" lon="-1.71241">
        <ele>412</ele>
        <time>2022-02-11T00:35:01Z</time>
      </trkpt>
      <trkpt lat="43.31171" lon="-1.71304">
        <ele>405</ele>
        <time>2022-02-11T00:35:45Z</time>
      </trkpt>
      <trkpt lat="43.3123" lon="-1.71338">
        <ele>403</ele>
        <time>2022-02-11T00:36:17Z</time>
      </trkpt>
      <trkpt lat="43.31294" lon="-1.71348">
        <ele>394</ele>
        <time>2022-02-11T00:36:50Z</time>
      </trkpt>
      <trkpt lat="43.31366" lon="-1.71366">
        <ele>386</ele>
        <time>2022-02-11T00:37:26Z</time>
      </trkpt>
      <trkpt lat="43.31407" lon="-1.7138">
        <ele>381</ele>
        <time>2022-02-11T00:37:47Z</time>
      </trkpt>
      <trkpt lat="43.31447" lon="-1.71413">
        <ele>380</ele>
        <time>2022-02-11T00:38:11Z</time>
      </trkpt>
      <trkpt lat="43.31513" lon="-1.71446">
        <ele>368</ele>
        <time>2022-02-11T00:38:46Z</time>
      </trkpt>
      <trkpt lat="43.31572" lon="-1.71506">
        <ele>358</ele>
        <time>2022-02-11T00:39:23Z</time>
      </trkpt>
      <trkpt lat="43.3165" lon="-1.71606">
        <ele>327</ele>
        <time>2022-02-11T00:40:16Z</time>
      </trkpt>
      <trkpt lat="43.31686" lon="-1.71659">
        <ele>320</ele>
        <time>2022-02-11T00:40:42Z</time>
      </trkpt>
      <trkpt lat="43.31658" lon="-1.71719">
        <ele>316</ele>
        <time>2022-02-11T00:41:08Z</time>
      </trkpt>
      <trkpt lat="43.31542" lon="-1.71779">
        <ele>312</ele>
        <time>2022-02-11T00:42:10Z</time>
      </trkpt>
      <trkpt lat="43.31465" lon="-1.71831">
        <ele>310</ele>
        <time>2022-02-11T00:42:53Z</time>
      </trkpt>
      <trkpt lat="43.31434" lon="-1.71896">
        <ele>297</ele>
        <time>2022-02-11T00:43:22Z</time>
      </trkpt>
      <trkpt lat="43.31447" lon="-1.71911">
        <ele>289</ele>
        <time>2022-02-11T00:43:30Z</time>
      </trkpt>
      <trkpt lat="43.31458" lon="-1.71948">
        <ele>277</ele>
        <time>2022-02-11T00:43:45Z</time>
      </trkpt>
      <trkpt lat="43.31446" lon="-1.71971">
        <ele>273</ele>
        <time>2022-02-11T00:43:55Z</time>
      </trkpt>
      <trkpt lat="43.31447" lon="-1.72025">
        <ele>260</ele>
        <time>2022-02-11T00:44:15Z</time>
      </trkpt>
      <trkpt lat="43.3143" lon="-1.72108">
        <ele>245</ele>
        <time>2022-02-11T00:44:46Z</time>
      </trkpt>
      <trkpt lat="43.31432" lon="-1.72198">
        <ele>236</ele>
        <time>2022-02-11T00:45:19Z</time>
      </trkpt>
      <trkpt lat="43.31411" lon="-1.72308">
        <ele>226</ele>
        <time>2022-02-11T00:46:00Z</time>
      </trkpt>
      <trkpt lat="43.31415" lon="-1.72401">
        <ele>223</ele>
        <time>2022-02-11T00:46:34Z</time>
      </trkpt>
      <trkpt lat="43.31411" lon="-1.7251">
        <ele>217</ele>
        <time>2022-02-11T00:47:14Z</time>
      </trkpt>
      <trkpt lat="43.31412" lon="-1.72619">
        <ele>204</ele>
        <time>2022-02-11T00:47:54Z</time>
      </trkpt>
      <trkpt lat="43.3142" lon="-1.72729">
        <ele>192</ele>
        <time>2022-02-11T00:48:34Z</time>
      </trkpt>
      <trkpt lat="43.31468" lon="-1.72784">
        <ele>194</ele>
        <time>2022-02-11T00:49:05Z</time>
      </trkpt>
      <trkpt lat="43.31528" lon="-1.72834">
        <ele>194</ele>
        <time>2022-02-11T00:49:40Z</time>
      </trkpt>
      <trkpt lat="43.31625" lon="-1.72873">
        <ele>186</ele>
        <time>2022-02-11T00:50:31Z</time>
      </trkpt>
      <trkpt lat="43.31734" lon="-1.72912">
        <ele>172</ele>
        <time>2022-02-11T00:51:27Z</time>
      </trkpt>
      <trkpt lat="43.31843" lon="-1.72964">
        <ele>161</ele>
        <time>2022-02-11T00:52:25Z</time>
      </trkpt>
      <trkpt lat="43.31935" lon="-1.72974">
        <ele>158</ele>
        <time>2022-02-11T00:53:11Z</time>
      </trkpt>
      <trkpt lat="43.32034" lon="-1.73005">
        <ele>148</ele>
        <time>2022-02-11T00:54:02Z</time>
      </trkpt>
      <trkpt lat="43.32108" lon="-1.73086">
        <ele>134</ele>
        <time>2022-02-11T00:54:49Z</time>
      </trkpt>
      <trkpt lat="43.32205" lon="-1.73312">
        <ele>98</ele>
        <time>2022-02-11T00:56:25Z</time>
      </trkpt>
      <trkpt lat="43.32268" lon="-1.73357">
        <ele>85</ele>
        <time>2022-02-11T00:57:00Z</time>
      </trkpt>
      <trkpt lat="43.32326" lon="-1.73361">
        <ele>75</ele>
        <time>2022-02-11T00:57:29Z</time>
      </trkpt>
      <trkpt lat="43.3233" lon="-1.73433">
        <ele>52</ele>
        <time>2022-02-11T00:57:56Z</time>
      </trkpt>
      <trkpt lat="43.32356" lon="-1.73476">
        <ele>41</ele>
        <time>2022-02-11T00:58:16Z</time>
      </trkpt>
      <trkpt lat="43.32368" lon="-1.73535">
        <ele>32</ele>
        <time>2022-02-11T00:58:38Z</time>
      </trkpt>
      <trkpt lat="43.3241" lon="-1.73579">
        <ele>28</ele>
        <time>2022-02-11T00:59:05Z</time>
      </trkpt>
      <trkpt lat="43.325" lon="-1.73566">
        <ele>34</ele>
        <time>2022-02-11T00:59:50Z</time>
      </trkpt>
      <trkpt lat="43.32617" lon="-1.73553">
        <ele>32</ele>
        <time>2022-02-11T01:00:49Z</time>
      </trkpt>
      <trkpt lat="43.32723" lon="-1.73587">
        <ele>15</ele>
        <time>2022-02-11T01:01:43Z</time>
      </trkpt>
      <trkpt lat="43.32849" lon="-1.73593">
        <ele>18</ele>
        <time>2022-02-11T01:02:46Z</time>
      </trkpt>
      <trkpt lat="43.32949" lon="-1.73618">
        <ele>29</ele>
        <time>2022-02-11T01:03:37Z</time>
      </trkpt>
      <trkpt lat="43.33035" lon="-1.73687">
        <ele>34</ele>
        <time>2022-02-11T01:04:27Z</time>
      </trkpt>
      <trkpt lat="43.33114" lon="-1.73815">
        <ele>33</ele>
        <time>2022-02-11T01:05:28Z</time>
      </trkpt>
      <trkpt lat="43.33157" lon="-1.73921">
        <ele>31</ele>
        <time>2022-02-11T01:06:12Z</time>
      </trkpt>
      <trkpt lat="43.33192" lon="-1.74036">
        <ele>34</ele>
        <time>2022-02-11T01:06:58Z</time>
      </trkpt>
      <trkpt lat="43.33264" lon="-1.74224">
        <ele>47</ele>
        <time>2022-02-11T01:08:15Z</time>
      </trkpt>
    </trkseg>
  </trk>
</gpx>